createdAt,value
2023-02-27T00:02:24.248Z,9.57
2023-02-27T00:04:50.886Z,9.57
2023-02-27T00:07:17.885Z,10.97
2023-02-27T00:09:44.337Z,16.30
2023-02-27T00:12:12.047Z,12.73
2023-02-27T00:14:38.504Z,12.30
2023-02-27T00:17:04.894Z,12.23
2023-02-27T00:19:31.355Z,9.33
2023-02-27T00:21:57.721Z,15.67
2023-02-27T00:24:24.361Z,13.03
2023-02-27T00:26:51.170Z,9.70
2023-02-27T00:29:17.622Z,10.93
2023-02-27T00:31:44.076Z,10.37
2023-02-27T00:34:10.614Z,12.17
2023-02-27T00:36:37.041Z,12.00
2023-02-27T00:39:03.599Z,14.43
2023-02-27T00:41:30.043Z,11.23
2023-02-27T00:43:57.669Z,39.00
2023-02-27T00:46:24.132Z,34.20
2023-02-27T00:48:50.542Z,36.33
2023-02-27T00:51:16.955Z,23.23
2023-02-27T00:53:43.349Z,24.77
2023-02-27T00:56:09.813Z,16.57
2023-02-27T00:58:36.201Z,15.97
2023-02-27T01:01:02.709Z,12.80
2023-02-27T01:03:29.124Z,16.23
2023-02-27T01:05:55.567Z,9.20
2023-02-27T01:08:22.165Z,8.80
2023-02-27T01:10:49.069Z,9.23
2023-02-27T01:13:16.492Z,7.17
2023-02-27T01:15:42.989Z,7.63
2023-02-27T01:18:09.365Z,7.43
2023-02-27T01:20:35.764Z,6.77
2023-02-27T01:23:02.181Z,10.33
2023-02-27T01:25:28.604Z,8.90
2023-02-27T01:27:55.132Z,10.00
2023-02-27T01:30:21.594Z,7.00
2023-02-27T01:32:48.020Z,6.20
2023-02-27T01:35:14.524Z,5.37
2023-02-27T01:37:41.093Z,7.63
2023-02-27T01:40:08.421Z,5.60
2023-02-27T01:42:37.061Z,6.30
2023-02-27T01:45:12.789Z,7.83
2023-02-27T01:47:40.168Z,6.30
2023-02-27T01:50:06.975Z,8.87
2023-02-27T01:52:34.630Z,8.33
2023-02-27T01:55:01.066Z,7.63
2023-02-27T01:57:27.539Z,5.23
2023-02-27T01:59:54.046Z,7.20
2023-02-27T02:02:25.501Z,5.63
2023-02-27T02:04:52.583Z,4.95
2023-02-27T02:07:20.000Z,6.47
2023-02-27T02:09:51.338Z,6.37
2023-02-27T02:12:18.961Z,5.90
2023-02-27T02:14:45.459Z,7.60
2023-02-27T02:17:30.294Z,5.37
2023-02-27T02:20:15.730Z,7.07
2023-02-27T02:23:01.989Z,10.33
2023-02-27T02:25:28.378Z,6.60
2023-02-27T02:28:00.379Z,8.20
2023-02-27T02:30:45.564Z,7.03
2023-02-27T02:33:30.915Z,7.93
2023-02-27T02:36:09.656Z,6.20
2023-02-27T02:38:35.995Z,8.03
2023-02-27T02:41:09.218Z,5.93
2023-02-27T02:43:44.726Z,15.10
2023-02-27T02:46:18.181Z,11.10
2023-02-27T02:48:47.801Z,6.60
2023-02-27T02:51:34.418Z,7.93
2023-02-27T02:54:04.567Z,7.10
2023-02-27T02:56:36.755Z,5.87
2023-02-27T02:59:22.028Z,6.87
2023-02-27T03:02:01.664Z,8.57
2023-02-27T03:04:34.010Z,8.30
2023-02-27T03:07:04.790Z,6.23
2023-02-27T03:09:34.543Z,9.23
2023-02-27T03:12:02.489Z,7.97
2023-02-27T03:14:28.901Z,5.63
2023-02-27T03:16:57.793Z,10.67
2023-02-27T03:19:27.955Z,8.07
2023-02-27T03:22:01.252Z,7.07
2023-02-27T03:24:48.345Z,7.63
2023-02-27T03:27:16.405Z,8.93
2023-02-27T03:29:46.665Z,4.57
2023-02-27T03:32:23.124Z,9.80
2023-02-27T03:34:49.642Z,8.17
2023-02-27T03:37:22.239Z,8.57
2023-02-27T03:39:50.506Z,7.70
2023-02-27T03:42:16.919Z,11.17
2023-02-27T03:44:52.575Z,10.87
2023-02-27T03:47:19.374Z,10.00
2023-02-27T03:49:45.782Z,8.00
2023-02-27T03:52:12.406Z,8.00
2023-02-27T03:54:42.505Z,10.23
2023-02-27T03:57:09.031Z,10.23
2023-02-27T03:59:36.176Z,8.97
2023-02-27T04:02:03.161Z,8.23
2023-02-27T04:04:32.010Z,10.73
2023-02-27T04:07:20.684Z,8.57
2023-02-27T04:09:50.188Z,9.37
2023-02-27T04:12:22.335Z,9.70
2023-02-27T04:15:04.397Z,9.57
2023-02-27T04:20:14.677Z,10.77
2023-02-27T04:22:48.890Z,11.03
2023-02-27T04:25:22.714Z,9.10
2023-02-27T04:27:51.920Z,9.17
2023-02-27T04:30:24.421Z,6.83
2023-02-27T04:33:03.504Z,8.43
2023-02-27T04:35:34.751Z,7.87
2023-02-27T04:38:09.631Z,8.88
2023-02-27T04:40:43.190Z,9.37
2023-02-27T04:43:11.678Z,12.47
2023-02-27T04:45:41.350Z,9.33
2023-02-27T04:48:18.551Z,8.97
2023-02-27T04:50:46.780Z,10.13
2023-02-27T04:53:19.671Z,7.47
2023-02-27T04:55:47.790Z,9.07
2023-02-27T04:58:17.437Z,9.10
2023-02-27T05:00:47.594Z,12.30
2023-02-27T05:03:18.070Z,11.63
2023-02-27T05:05:48.215Z,15.50
2023-02-27T05:08:24.020Z,8.67
2023-02-27T05:10:58.721Z,12.13
2023-02-27T05:13:28.176Z,11.30
2023-02-27T05:15:59.874Z,8.80
2023-02-27T05:18:26.940Z,11.90
2023-02-27T05:20:54.042Z,8.40
2023-02-27T05:23:29.280Z,12.10
2023-02-27T05:25:58.627Z,9.57
2023-02-27T05:28:30.484Z,10.57
2023-02-27T05:30:56.848Z,8.57
2023-02-27T05:33:30.663Z,5.10
2023-02-27T05:36:03.087Z,9.70
2023-02-27T05:38:36.839Z,7.33
2023-02-27T05:41:22.641Z,10.30
2023-02-27T05:43:51.139Z,8.77
2023-02-27T05:46:26.559Z,6.47
2023-02-27T05:48:55.506Z,11.47
2023-02-27T05:51:25.099Z,7.77
2023-02-27T05:53:56.507Z,7.50
2023-02-27T05:56:23.994Z,8.45
2023-02-27T05:58:54.349Z,7.73
2023-02-27T06:01:20.757Z,7.60
2023-02-27T06:03:47.261Z,10.17
2023-02-27T06:06:15.021Z,9.43
2023-02-27T06:08:41.670Z,9.13
2023-02-27T06:11:08.323Z,8.57
2023-02-27T06:13:34.739Z,7.90
2023-02-27T06:16:01.127Z,12.13
2023-02-27T06:18:27.544Z,5.83
2023-02-27T06:20:53.957Z,7.83
2023-02-27T06:23:20.320Z,8.40
2023-02-27T06:25:48.202Z,12.47
2023-02-27T06:28:14.616Z,9.30
2023-02-27T06:30:41.174Z,9.17
2023-02-27T06:33:07.656Z,9.43
2023-02-27T06:35:34.332Z,11.53
2023-02-27T06:38:00.878Z,9.77
2023-02-27T06:40:27.247Z,8.60
2023-02-27T06:42:53.624Z,10.70
2023-02-27T06:45:20.058Z,8.87
2023-02-27T06:47:46.512Z,8.57
2023-02-27T06:50:13.945Z,13.07
2023-02-27T06:52:40.373Z,9.20
2023-02-27T06:55:07.606Z,9.50
2023-02-27T06:57:34.483Z,9.03
2023-02-27T07:00:01.011Z,11.73
2023-02-27T07:02:27.412Z,8.40
2023-02-27T07:04:53.906Z,10.03
2023-02-27T07:07:36.417Z,12.37
2023-02-27T07:10:04.755Z,11.77
2023-02-27T07:12:31.145Z,11.33
2023-02-27T07:14:57.576Z,12.00
2023-02-27T07:17:23.960Z,12.87
2023-02-27T07:19:50.344Z,10.07
2023-02-27T07:22:16.716Z,11.37
2023-02-27T07:24:43.125Z,10.73
2023-02-27T07:27:09.568Z,10.73
2023-02-27T07:29:36.116Z,10.53
2023-02-27T07:32:02.823Z,13.80
2023-02-27T07:34:29.303Z,11.07
2023-02-27T07:36:55.717Z,10.67
2023-02-27T07:39:22.085Z,10.43
2023-02-27T07:41:48.497Z,9.20
2023-02-27T07:44:16.492Z,10.30
2023-02-27T07:46:44.754Z,11.13
2023-02-27T07:49:11.405Z,10.13
2023-02-27T07:51:40.584Z,12.57
2023-02-27T07:54:07.015Z,10.67
2023-02-27T07:56:33.454Z,7.87
2023-02-27T07:58:59.875Z,9.83
2023-02-27T08:01:27.425Z,7.07
2023-02-27T08:03:53.841Z,8.63
2023-02-27T08:06:22.624Z,6.93
2023-02-27T08:08:49.273Z,9.07
2023-02-27T08:11:16.770Z,9.50
2023-02-27T08:13:59.418Z,5.23
2023-02-27T08:16:27.800Z,8.40
2023-02-27T08:18:54.652Z,7.27
2023-02-27T08:21:21.070Z,5.40
2023-02-27T08:23:47.622Z,7.60
2023-02-27T08:26:14.355Z,8.20
2023-02-27T08:28:41.008Z,6.37
2023-02-27T08:31:07.485Z,6.77
2023-02-27T08:33:34.401Z,7.57
2023-02-27T08:36:00.919Z,8.13
2023-02-27T08:38:27.363Z,8.33
2023-02-27T08:40:53.767Z,9.20
2023-02-27T08:43:20.929Z,7.67
2023-02-27T08:45:47.893Z,6.80
2023-02-27T08:48:15.823Z,9.70
2023-02-27T08:50:42.927Z,9.50
2023-02-27T08:53:09.394Z,12.57
2023-02-27T08:55:35.804Z,9.87
2023-02-27T08:58:02.212Z,7.77
2023-02-27T09:00:29.099Z,15.80
2023-02-27T09:02:55.525Z,10.93
2023-02-27T09:05:23.016Z,7.87
2023-02-27T09:07:49.445Z,10.67
2023-02-27T09:10:15.856Z,7.90
2023-02-27T09:12:43.028Z,6.37
2023-02-27T09:15:11.335Z,7.67
2023-02-27T09:17:38.044Z,8.33
2023-02-27T09:20:05.004Z,7.63
2023-02-27T09:22:31.453Z,9.23
2023-02-27T09:24:57.837Z,9.97
2023-02-27T09:27:24.371Z,6.10
2023-02-27T09:29:55.569Z,6.57
2023-02-27T09:32:22.751Z,5.78
2023-02-27T09:34:49.267Z,11.13
2023-02-27T09:37:16.243Z,6.60
2023-02-27T09:39:44.680Z,7.67
2023-02-27T09:42:15.559Z,7.77
2023-02-27T09:44:46.947Z,6.53
2023-02-27T09:49:48.094Z,8.27
2023-02-27T09:52:14.820Z,6.20
2023-02-27T09:54:42.605Z,5.67
2023-02-27T09:57:15.066Z,36.13
2023-02-27T09:59:47.359Z,8.37
2023-02-27T10:02:36.593Z,3.57
2023-02-27T10:05:17.998Z,4.83
2023-02-27T10:07:55.861Z,7.05
2023-02-27T10:10:22.282Z,3.90
2023-02-27T10:12:57.252Z,5.77
2023-02-27T10:15:52.941Z,7.43
2023-02-27T10:18:28.228Z,9.80
2023-02-27T10:21:16.014Z,5.03
2023-02-27T10:23:45.550Z,5.90
2023-02-27T10:26:19.572Z,6.20
2023-02-27T10:28:46.104Z,20.30
2023-02-27T10:31:19.115Z,11.97
2023-02-27T10:33:48.772Z,13.13
2023-02-27T10:36:30.916Z,12.60
2023-02-27T10:39:00.965Z,19.17
2023-02-27T10:41:28.371Z,24.90
2023-02-27T10:43:57.302Z,19.10
2023-02-27T10:46:28.426Z,10.50
2023-02-27T10:48:55.197Z,9.02
2023-02-27T10:51:21.769Z,9.60
2023-02-27T10:53:48.283Z,15.43
2023-02-27T10:56:21.951Z,28.33
2023-02-27T10:59:01.163Z,16.93
2023-02-27T11:01:40.888Z,11.27
2023-02-27T11:04:07.338Z,17.90
2023-02-27T11:06:33.772Z,14.03
2023-02-27T11:09:18.103Z,12.77
2023-02-27T11:11:44.521Z,6.17
2023-02-27T11:14:31.316Z,8.73
2023-02-27T11:16:58.823Z,13.43
2023-02-27T11:19:25.262Z,12.93
2023-02-27T11:22:02.596Z,48.47
2023-02-27T11:24:29.388Z,15.10
2023-02-27T11:26:57.312Z,12.30
2023-02-27T11:29:23.814Z,8.83
2023-02-27T11:32:04.991Z,25.17
2023-02-27T11:34:36.300Z,10.70
2023-02-27T11:37:05.585Z,14.27
2023-02-27T11:39:37.180Z,29.20
2023-02-27T11:42:17.366Z,113.45
2023-02-27T11:44:51.286Z,21.73
2023-02-27T11:47:21.522Z,14.60
2023-02-27T11:50:03.281Z,6.37
2023-02-27T11:52:35.186Z,11.88
2023-02-27T11:57:30.231Z,21.87
2023-02-27T12:00:09.178Z,10.73
2023-02-27T12:02:55.907Z,10.27
2023-02-27T12:05:25.461Z,148.47
2023-02-27T12:08:15.283Z,88.73
2023-02-27T12:10:51.115Z,31.00
2023-02-27T12:13:22.602Z,15.07
2023-02-27T12:15:49.016Z,12.27
2023-02-27T12:18:15.445Z,17.90
2023-02-27T12:20:54.452Z,38.93
2023-02-27T12:23:28.839Z,49.70
2023-02-27T12:26:01.760Z,6.90
2023-02-27T12:28:28.154Z,14.00
2023-02-27T12:31:14.846Z,13.43
2023-02-27T12:33:55.365Z,21.90
2023-02-27T12:36:22.989Z,11.13
2023-02-27T12:38:49.455Z,4.90
2023-02-27T12:41:27.500Z,4.73
2023-02-27T12:43:57.106Z,9.90
2023-02-27T12:46:33.647Z,8.90
2023-02-27T12:49:00.015Z,5.27
2023-02-27T12:51:26.962Z,5.50
2023-02-27T12:54:12.193Z,5.70
2023-02-27T12:57:02.127Z,11.60
2023-02-27T12:59:42.462Z,15.63
2023-02-27T13:02:23.993Z,18.77
2023-02-27T13:04:57.450Z,10.05
2023-02-27T13:07:30.207Z,6.70
2023-02-27T13:10:02.131Z,11.33
2023-02-27T13:12:47.125Z,3.97
2023-02-27T13:15:13.541Z,5.53
2023-02-27T13:17:45.252Z,4.77
2023-02-27T13:22:37.996Z,9.33
2023-02-27T13:25:06.230Z,6.17
2023-02-27T13:27:35.286Z,5.83
2023-02-27T13:30:08.456Z,19.37
2023-02-27T13:32:43.942Z,11.53
2023-02-27T13:35:14.156Z,15.83
2023-02-27T13:37:54.508Z,19.90
2023-02-27T13:40:34.886Z,13.57
2023-02-27T13:43:06.466Z,14.30
2023-02-27T13:45:49.476Z,9.02
2023-02-27T13:48:34.116Z,4.53
2023-02-27T13:51:01.187Z,24.47
2023-02-27T13:53:28.388Z,11.63
2023-02-27T13:56:01.111Z,22.20
2023-02-27T13:58:27.712Z,9.27
2023-02-27T14:00:56.099Z,4.17
2023-02-27T14:03:25.934Z,7.83
2023-02-27T14:05:53.981Z,7.97
2023-02-27T14:08:20.430Z,13.77
2023-02-27T14:10:56.840Z,14.23
2023-02-27T14:13:42.410Z,21.03
2023-02-27T14:16:11.229Z,8.27
2023-02-27T14:19:11.262Z,18.70
2023-02-27T14:21:57.939Z,12.80
2023-02-27T14:24:31.420Z,16.27
2023-02-27T14:26:58.059Z,23.83
2023-02-27T14:29:31.035Z,5.13
2023-02-27T14:31:59.965Z,5.07
2023-02-27T14:34:26.802Z,5.07
2023-02-27T14:36:54.617Z,9.83
2023-02-27T14:39:32.309Z,5.97
2023-02-27T14:42:04.660Z,10.30
2023-02-27T14:44:39.411Z,4.53
2023-02-27T14:47:05.832Z,3.47
2023-02-27T14:49:34.001Z,6.80
2023-02-27T14:52:13.728Z,9.57
2023-02-27T14:54:40.205Z,6.93
2023-02-27T14:57:06.930Z,6.10
2023-02-27T14:59:43.219Z,5.17
2023-02-27T15:02:16.012Z,17.23
2023-02-27T15:04:42.680Z,10.03
2023-02-27T15:07:16.430Z,13.50
2023-02-27T15:09:44.728Z,61.60
2023-02-27T15:12:16.695Z,46.53
2023-02-27T15:14:46.190Z,28.40
2023-02-27T15:17:16.859Z,25.37
2023-02-27T15:19:50.908Z,19.00
2023-02-27T15:22:28.928Z,8.47
2023-02-27T15:25:04.768Z,15.70
2023-02-27T15:27:31.374Z,6.97
2023-02-27T15:29:59.011Z,29.63
2023-02-27T15:32:25.494Z,5.00
2023-02-27T15:34:52.597Z,4.70
2023-02-27T15:37:23.627Z,3.83
2023-02-27T15:39:51.707Z,18.67
2023-02-27T15:42:23.654Z,23.43
2023-02-27T15:44:50.167Z,10.13
2023-02-27T15:47:27.401Z,34.67
2023-02-27T15:49:55.563Z,16.23
2023-02-27T15:52:23.008Z,22.73
2023-02-27T15:54:53.657Z,18.83
2023-02-27T15:57:23.409Z,13.93
2023-02-27T15:59:50.402Z,8.87
2023-02-27T16:02:20.473Z,20.33
2023-02-27T16:04:47.154Z,22.23
2023-02-27T16:07:23.752Z,72.57
2023-02-27T16:09:54.973Z,26.67
2023-02-27T16:12:24.341Z,12.80
2023-02-27T16:14:52.894Z,7.93
2023-02-27T16:17:29.704Z,10.20
2023-02-27T16:19:57.214Z,13.87
2023-02-27T16:22:24.656Z,17.93
2023-02-27T16:24:51.553Z,8.50
2023-02-27T16:27:19.604Z,14.63
2023-02-27T16:29:47.105Z,22.20
2023-02-27T16:32:27.171Z,61.83
2023-02-27T16:35:01.272Z,88.13
2023-02-27T16:37:33.957Z,72.87
2023-02-27T16:40:00.468Z,37.73
2023-02-27T16:42:26.932Z,20.23
2023-02-27T16:44:53.394Z,27.07
2023-02-27T16:47:19.808Z,29.43
2023-02-27T16:49:47.381Z,49.30
2023-02-27T16:52:13.761Z,73.83
2023-02-27T16:54:40.155Z,130.33
2023-02-27T16:57:06.652Z,82.00
2023-02-27T16:59:34.750Z,49.57
2023-02-27T17:02:02.771Z,57.40
2023-02-27T17:04:29.594Z,110.37
2023-02-27T17:06:57.353Z,97.87
2023-02-27T17:09:23.959Z,45.17
2023-02-27T17:11:50.350Z,58.20
2023-02-27T17:14:17.381Z,45.47
2023-02-27T17:16:43.829Z,38.97
2023-02-27T17:19:10.704Z,52.93
2023-02-27T17:21:37.156Z,45.00
2023-02-27T17:24:03.920Z,69.57
2023-02-27T17:26:31.242Z,70.70
2023-02-27T17:28:58.597Z,63.17
2023-02-27T17:31:25.063Z,57.93
2023-02-27T17:33:52.510Z,60.07
2023-02-27T17:36:19.727Z,51.97
2023-02-27T17:38:46.211Z,70.73
2023-02-27T17:41:13.235Z,53.33
2023-02-27T17:43:41.566Z,38.97
2023-02-27T17:46:08.970Z,40.63
2023-02-27T17:48:35.936Z,22.27
2023-02-27T17:51:10.346Z,68.07
2023-02-27T17:53:37.133Z,45.67
2023-02-27T17:56:03.966Z,11.00
2023-02-27T17:58:30.561Z,8.60
2023-02-27T18:01:06.976Z,16.13
2023-02-27T18:03:33.843Z,22.90
2023-02-27T18:06:00.652Z,22.17
2023-02-27T18:08:27.381Z,191.10
2023-02-27T18:10:53.785Z,346.90
2023-02-27T18:13:21.872Z,296.67
2023-02-27T18:15:50.888Z,621.70
2023-02-27T18:18:17.863Z,74.30
2023-02-27T18:20:44.503Z,127.23
2023-02-27T18:23:10.996Z,405.13
2023-02-27T18:25:37.638Z,190.73
2023-02-27T18:28:04.794Z,84.67
2023-02-27T18:30:33.547Z,56.33
2023-02-27T18:32:59.996Z,9.03
2023-02-27T18:35:26.509Z,38.03
2023-02-27T18:37:52.991Z,247.63
2023-02-27T18:40:23.221Z,134.20
2023-02-27T18:42:49.592Z,67.70
2023-02-27T18:45:16.117Z,378.27
2023-02-27T18:47:42.528Z,40.13
2023-02-27T18:50:09.218Z,438.10
2023-02-27T18:52:37.221Z,412.07
2023-02-27T18:55:03.863Z,239.30
2023-02-27T18:57:30.409Z,266.57
2023-02-27T18:59:56.778Z,92.30
2023-02-27T19:02:23.262Z,113.53
2023-02-27T19:04:49.681Z,22.87
2023-02-27T19:07:16.678Z,101.17
2023-02-27T19:09:43.242Z,253.13
2023-02-27T19:12:10.983Z,188.13
2023-02-27T19:14:40.445Z,211.50
2023-02-27T19:17:06.998Z,69.57
2023-02-27T19:19:33.539Z,41.67
2023-02-27T19:21:59.963Z,22.63
2023-02-27T19:24:26.431Z,25.23
2023-02-27T19:26:53.579Z,24.83
2023-02-27T19:29:20.242Z,83.67
2023-02-27T19:31:46.840Z,323.87
2023-02-27T19:34:15.000Z,73.00
2023-02-27T19:36:44.329Z,103.28
2023-02-27T19:39:10.920Z,109.43
2023-02-27T19:41:37.554Z,170.13
2023-02-27T19:44:04.086Z,90.47
2023-02-27T19:46:32.135Z,49.30
2023-02-27T19:48:59.843Z,26.30
2023-02-27T19:51:26.721Z,27.10
2023-02-27T19:53:53.861Z,42.63
2023-02-27T19:56:21.973Z,42.37
2023-02-27T19:58:48.570Z,38.30
2023-02-27T20:01:22.781Z,20.07
2023-02-27T20:03:49.621Z,40.33
2023-02-27T20:06:20.824Z,30.30
2023-02-27T20:08:47.414Z,23.02
2023-02-27T20:11:15.676Z,58.83
2023-02-27T20:13:42.274Z,41.17
2023-02-27T20:16:09.769Z,30.20
2023-02-27T20:18:36.961Z,75.60
2023-02-27T20:21:07.573Z,23.10
2023-02-27T20:23:35.111Z,22.87
2023-02-27T20:26:02.205Z,38.50
2023-02-27T20:28:28.619Z,24.47
2023-02-27T20:30:56.101Z,22.47
2023-02-27T20:33:22.551Z,27.17
2023-02-27T20:35:49.064Z,26.93
2023-02-27T20:38:17.096Z,23.33
2023-02-27T20:40:43.569Z,24.23
2023-02-27T20:43:09.955Z,25.97
2023-02-27T20:45:39.865Z,58.00
2023-02-27T20:48:06.951Z,18.10
2023-02-27T20:50:33.856Z,22.97
2023-02-27T20:53:00.532Z,21.00
2023-02-27T20:55:27.046Z,16.37
2023-02-27T20:57:54.413Z,21.13
2023-02-27T21:00:21.363Z,18.60
2023-02-27T21:02:47.905Z,23.10
2023-02-27T21:05:14.828Z,17.50
2023-02-27T21:07:41.348Z,14.63
2023-02-27T21:10:08.092Z,16.90
2023-02-27T21:12:34.633Z,19.97
2023-02-27T21:15:03.239Z,20.23
2023-02-27T21:17:30.280Z,16.80
2023-02-27T21:19:56.702Z,19.70
2023-02-27T21:22:23.226Z,16.67
2023-02-27T21:24:51.982Z,17.10
2023-02-27T21:27:20.813Z,18.40
2023-02-27T21:29:48.060Z,25.83
2023-02-27T21:32:14.475Z,25.93
2023-02-27T21:34:40.978Z,16.17
2023-02-27T21:37:09.039Z,16.90
2023-02-27T21:39:35.510Z,19.37
2023-02-27T21:42:01.995Z,15.07
2023-02-27T21:44:29.752Z,30.10
2023-02-27T21:46:56.198Z,46.33
2023-02-27T21:49:26.993Z,66.17
2023-02-27T21:51:53.628Z,42.87
2023-02-27T21:54:20.472Z,38.60
2023-02-27T21:56:48.057Z,26.43
2023-02-27T21:59:14.925Z,22.33
2023-02-27T22:01:41.838Z,59.47
2023-02-27T22:04:08.331Z,46.33
2023-02-27T22:06:34.832Z,25.73
2023-02-27T22:09:04.866Z,25.80
2023-02-27T22:11:31.862Z,27.27
2023-02-27T22:13:58.346Z,24.00
2023-02-27T22:16:24.977Z,22.47
2023-02-27T22:18:51.930Z,24.80
2023-02-27T22:21:20.778Z,25.37
2023-02-27T22:23:47.537Z,24.10
2023-02-27T22:26:15.442Z,47.10
2023-02-27T22:28:41.874Z,31.03
2023-02-27T22:31:08.348Z,21.80
2023-02-27T22:33:34.944Z,36.13
2023-02-27T22:36:04.066Z,35.33
2023-02-27T22:38:30.459Z,41.37
2023-02-27T22:40:56.885Z,27.33
2023-02-27T22:43:23.412Z,51.93
2023-02-27T22:45:49.937Z,34.93
2023-02-27T22:48:16.387Z,99.60
2023-02-27T22:50:42.775Z,38.47
2023-02-27T22:53:09.272Z,26.80
2023-02-27T22:55:35.985Z,27.43
2023-02-27T22:58:02.410Z,30.90
2023-02-27T23:00:29.151Z,25.50
2023-02-27T23:02:55.839Z,32.67
2023-02-27T23:05:22.228Z,29.23
2023-02-27T23:07:48.585Z,31.17
2023-02-27T23:10:15.007Z,47.00
2023-02-27T23:12:41.418Z,49.97
2023-02-27T23:15:08.439Z,58.60
2023-02-27T23:17:34.871Z,40.30
2023-02-27T23:20:01.340Z,48.20
2023-02-27T23:22:33.442Z,42.27
2023-02-27T23:25:00.080Z,38.13
2023-02-27T23:27:26.648Z,41.00
2023-02-27T23:29:54.631Z,39.90
2023-02-27T23:32:21.123Z,36.57
2023-02-27T23:34:49.842Z,42.70
2023-02-27T23:37:16.426Z,36.10
2023-02-27T23:39:42.802Z,34.00
2023-02-27T23:42:09.230Z,30.27
2023-02-27T23:44:35.634Z,29.17
2023-02-27T23:47:02.284Z,30.33
2023-02-27T23:49:28.671Z,27.63
2023-02-27T23:51:56.113Z,26.93
2023-02-27T23:54:22.574Z,28.50
2023-02-27T23:56:49.405Z,29.70
2023-02-27T23:59:15.822Z,29.37
